sensor_id;sensor_type;location;lat;lon;timestamp;pressure;altitude;pressure_sealevel;temperature;humidity
19590;BME280;12231;42.782;23.388;2023-02-05T00:01:49;95674.03;;;-2.03;100.00
19590;BME280;12231;42.782;23.388;2023-02-05T00:04:15;95680.09;;;-2.20;100.00
19590;BME280;12231;42.782;23.388;2023-02-05T00:06:40;95686.75;;;-2.13;100.00
19590;BME280;12231;42.782;23.388;2023-02-05T00:09:05;95686.63;;;-2.01;100.00
19590;BME280;12231;42.782;23.388;2023-02-05T00:11:31;95684.09;;;-2.01;100.00
19590;BME280;12231;42.782;23.388;2023-02-05T00:13:56;95689.22;;;-2.09;100.00
19590;BME280;12231;42.782;23.388;2023-02-05T00:16:23;95689.19;;;-2.06;100.00
19590;BME280;12231;42.782;23.388;2023-02-05T00:18:49;95691.78;;;-2.12;100.00
19590;BME280;12231;42.782;23.388;2023-02-05T00:21:16;95692.53;;;-2.02;100.00
19590;BME280;12231;42.782;23.388;2023-02-05T00:23:42;95698.50;;;-2.11;100.00
19590;BME280;12231;42.782;23.388;2023-02-05T00:26:08;95693.44;;;-2.11;100.00
19590;BME280;12231;42.782;23.388;2023-02-05T00:28:35;95705.13;;;-1.99;100.00
19590;BME280;12231;42.782;23.388;2023-02-05T00:31:10;95694.34;;;-2.13;100.00
19590;BME280;12231;42.782;23.388;2023-02-05T00:33:36;95692.47;;;-1.98;100.00
19590;BME280;12231;42.782;23.388;2023-02-05T00:36:03;95700.97;;;-2.05;100.00
19590;BME280;12231;42.782;23.388;2023-02-05T00:38:28;95700.06;;;-1.98;100.00
19590;BME280;12231;42.782;23.388;2023-02-05T00:40:53;95701.03;;;-2.12;100.00
19590;BME280;12231;42.782;23.388;2023-02-05T00:43:19;95705.16;;;-2.04;100.00
19590;BME280;12231;42.782;23.388;2023-02-05T00:45:44;95713.56;;;-2.05;100.00
19590;BME280;12231;42.782;23.388;2023-02-05T00:48:09;95710.19;;;-2.01;100.00
19590;BME280;12231;42.782;23.388;2023-02-05T00:50:35;95713.59;;;-2.06;100.00
19590;BME280;12231;42.782;23.388;2023-02-05T00:53:01;95712.81;;;-2.13;100.00
19590;BME280;12231;42.782;23.388;2023-02-05T00:55:27;95720.44;;;-2.19;100.00
19590;BME280;12231;42.782;23.388;2023-02-05T00:57:52;95713.78;;;-2.27;100.00
19590;BME280;12231;42.782;23.388;2023-02-05T01:00:18;95723.88;;;-2.26;100.00
19590;BME280;12231;42.782;23.388;2023-02-05T01:02:44;95717.94;;;-2.19;100.00
19590;BME280;12231;42.782;23.388;2023-02-05T01:05:09;95718.88;;;-2.32;100.00
19590;BME280;12231;42.782;23.388;2023-02-05T01:07:34;95726.38;;;-2.21;100.00
19590;BME280;12231;42.782;23.388;2023-02-05T01:10:00;95728.88;;;-2.20;100.00
19590;BME280;12231;42.782;23.388;2023-02-05T01:12:25;95729.75;;;-2.25;100.00
19590;BME280;12231;42.782;23.388;2023-02-05T01:14:51;95721.41;;;-2.30;100.00
19590;BME280;12231;42.782;23.388;2023-02-05T01:17:18;95730.69;;;-2.35;100.00
19590;BME280;12231;42.782;23.388;2023-02-05T01:19:44;95729.81;;;-2.31;100.00
19590;BME280;12231;42.782;23.388;2023-02-05T01:22:09;95728.28;;;-2.47;100.00
19590;BME280;12231;42.782;23.388;2023-02-05T01:24:36;95724.91;;;-2.49;100.00
19590;BME280;12231;42.782;23.388;2023-02-05T01:27:01;95727.38;;;-2.42;100.00
19590;BME280;12231;42.782;23.388;2023-02-05T01:29:26;95731.56;;;-2.39;100.00
19590;BME280;12231;42.782;23.388;2023-02-05T01:31:52;95737.44;;;-2.39;100.00
19590;BME280;12231;42.782;23.388;2023-02-05T01:34:18;95729.09;;;-2.48;100.00
19590;BME280;12231;42.782;23.388;2023-02-05T01:36:43;95730.00;;;-2.54;100.00
19590;BME280;12231;42.782;23.388;2023-02-05T01:39:09;95733.34;;;-2.55;100.00
19590;BME280;12231;42.782;23.388;2023-02-05T01:41:34;95742.63;;;-2.58;100.00
19590;BME280;12231;42.782;23.388;2023-02-05T01:44:18;95740.16;;;-2.64;100.00
19590;BME280;12231;42.782;23.388;2023-02-05T01:46:47;95745.06;;;-2.46;100.00
19590;BME280;12231;42.782;23.388;2023-02-05T01:51:48;95752.81;;;-2.70;100.00
19590;BME280;12231;42.782;23.388;2023-02-05T01:54:15;95752.00;;;-2.74;100.00
19590;BME280;12231;42.782;23.388;2023-02-05T01:56:44;95756.19;;;-2.70;100.00
19590;BME280;12231;42.782;23.388;2023-02-05T01:59:18;95751.16;;;-2.70;100.00
19590;BME280;12231;42.782;23.388;2023-02-05T02:01:46;95757.78;;;-2.57;100.00
19590;BME280;12231;42.782;23.388;2023-02-05T02:04:14;95751.84;;;-2.54;100.00
19590;BME280;12231;42.782;23.388;2023-02-05T02:06:42;95746.94;;;-2.71;100.00
19590;BME280;12231;42.782;23.388;2023-02-05T02:09:08;95758.63;;;-2.61;100.00
19590;BME280;12231;42.782;23.388;2023-02-05T02:11:37;95762.88;;;-2.69;100.00
19590;BME280;12231;42.782;23.388;2023-02-05T02:14:05;95768.03;;;-2.86;100.00
19590;BME280;12231;42.782;23.388;2023-02-05T02:16:34;95770.50;;;-2.73;100.00
19590;BME280;12231;42.782;23.388;2023-02-05T02:19:03;95773.94;;;-2.93;100.00
19590;BME280;12231;42.782;23.388;2023-02-05T02:29:55;95778.94;;;-2.82;100.00
19590;BME280;12231;42.782;23.388;2023-02-05T02:37:48;95781.50;;;-2.91;100.00
19590;BME280;12231;42.782;23.388;2023-02-05T02:40:33;95787.34;;;-2.83;100.00
19590;BME280;12231;42.782;23.388;2023-02-05T02:43:06;95777.28;;;-2.83;100.00
19590;BME280;12231;42.782;23.388;2023-02-05T02:45:37;95778.13;;;-2.89;100.00
19590;BME280;12231;42.782;23.388;2023-02-05T02:48:06;95784.88;;;-2.95;100.00
19590;BME280;12231;42.782;23.388;2023-02-05T02:50:36;95786.59;;;-2.99;100.00
19590;BME280;12231;42.782;23.388;2023-02-05T02:53:14;95787.34;;;-2.82;100.00
19590;BME280;12231;42.782;23.388;2023-02-05T02:55:42;95784.00;;;-2.91;100.00
19590;BME280;12231;42.782;23.388;2023-02-05T02:58:14;95784.84;;;-2.91;100.00
19590;BME280;12231;42.782;23.388;2023-02-05T03:00:42;95781.56;;;-3.00;100.00
19590;BME280;12231;42.782;23.388;2023-02-05T03:03:10;95784.91;;;-2.98;100.00
19590;BME280;12231;42.782;23.388;2023-02-05T03:05:40;95792.50;;;-3.09;100.00
19590;BME280;12231;42.782;23.388;2023-02-05T03:08:21;95792.53;;;-3.15;100.00
19590;BME280;12231;42.782;23.388;2023-02-05T03:11:03;95797.56;;;-3.12;100.00
19590;BME280;12231;42.782;23.388;2023-02-05T03:13:32;95795.84;;;-3.04;100.00
19590;BME280;12231;42.782;23.388;2023-02-05T03:15:57;95805.09;;;-3.07;100.00
19590;BME280;12231;42.782;23.388;2023-02-05T03:18:23;95793.34;;;-3.05;100.00
19590;BME280;12231;42.782;23.388;2023-02-05T03:20:57;95803.47;;;-3.16;100.00
19590;BME280;12231;42.782;23.388;2023-02-05T03:23:26;95804.28;;;-3.08;100.00
19590;BME280;12231;42.782;23.388;2023-02-05T03:25:51;95796.78;;;-3.23;100.00
19590;BME280;12231;42.782;23.388;2023-02-05T03:28:17;95811.00;;;-3.13;100.00
19590;BME280;12231;42.782;23.388;2023-02-05T03:33:29;95816.06;;;-3.20;100.00
19590;BME280;12231;42.782;23.388;2023-02-05T03:36:08;95816.03;;;-3.08;100.00
19590;BME280;12231;42.782;23.388;2023-02-05T03:52:46;95820.25;;;-3.15;100.00
19590;BME280;12231;42.782;23.388;2023-02-05T03:55:29;95811.91;;;-3.27;100.00
19590;BME280;12231;42.782;23.388;2023-02-05T03:57:59;95817.75;;;-3.15;100.00
19590;BME280;12231;42.782;23.388;2023-02-05T04:00:26;95821.97;;;-3.24;100.00
19590;BME280;12231;42.782;23.388;2023-02-05T04:02:52;95827.84;;;-3.25;100.00
19590;BME280;12231;42.782;23.388;2023-02-05T04:05:18;95824.50;;;-3.29;100.00
19590;BME280;12231;42.782;23.388;2023-02-05T04:07:48;95823.66;;;-3.29;100.00
19590;BME280;12231;42.782;23.388;2023-02-05T04:10:14;95829.53;;;-3.33;100.00
19590;BME280;12231;42.782;23.388;2023-02-05T04:12:39;95840.50;;;-3.43;100.00
19590;BME280;12231;42.782;23.388;2023-02-05T04:15:05;95833.78;;;-3.35;100.00
19590;BME280;12231;42.782;23.388;2023-02-05T04:17:33;95835.44;;;-3.36;100.00
19590;BME280;12231;42.782;23.388;2023-02-05T04:19:58;95840.47;;;-3.34;100.00
19590;BME280;12231;42.782;23.388;2023-02-05T04:22:24;95843.03;;;-3.51;100.00
19590;BME280;12231;42.782;23.388;2023-02-05T04:24:49;95842.19;;;-3.53;100.00
19590;BME280;12231;42.782;23.388;2023-02-05T04:27:14;95836.31;;;-3.47;100.00
19590;BME280;12231;42.782;23.388;2023-02-05T04:29:40;95840.50;;;-3.46;100.00
19590;BME280;12231;42.782;23.388;2023-02-05T04:32:05;95846.38;;;-3.44;100.00
19590;BME280;12231;42.782;23.388;2023-02-05T04:34:30;95844.72;;;-3.45;100.00
19590;BME280;12231;42.782;23.388;2023-02-05T04:36:56;95850.59;;;-3.58;100.00
19590;BME280;12231;42.782;23.388;2023-02-05T04:39:21;95851.38;;;-3.32;100.00
19590;BME280;12231;42.782;23.388;2023-02-05T04:41:46;95851.34;;;-3.25;100.00
19590;BME280;12231;42.782;23.388;2023-02-05T04:44:12;95851.38;;;-3.32;100.00
19590;BME280;12231;42.782;23.388;2023-02-05T04:46:37;95856.41;;;-3.31;100.00
19590;BME280;12231;42.782;23.388;2023-02-05T04:49:03;95853.03;;;-3.25;100.00
19590;BME280;12231;42.782;23.388;2023-02-05T04:51:28;95856.44;;;-3.40;100.00
19590;BME280;12231;42.782;23.388;2023-02-05T04:53:53;95866.50;;;-3.44;100.00
19590;BME280;12231;42.782;23.388;2023-02-05T04:56:19;95860.63;;;-3.48;100.00
19590;BME280;12231;42.782;23.388;2023-02-05T04:58:44;95871.53;;;-3.32;100.00
19590;BME280;12231;42.782;23.388;2023-02-05T05:01:16;95872.41;;;-3.60;100.00
19590;BME280;12231;42.782;23.388;2023-02-05T05:03:42;95876.59;;;-3.46;100.00
19590;BME280;12231;42.782;23.388;2023-02-05T05:06:08;95873.25;;;-3.45;100.00
19590;BME280;12231;42.782;23.388;2023-02-05T05:08:34;95878.25;;;-3.46;100.00
19590;BME280;12231;42.782;23.388;2023-02-05T05:11:05;95881.63;;;-3.46;100.00
19590;BME280;12231;42.782;23.388;2023-02-05T05:13:34;95887.50;;;-3.56;100.00
19590;BME280;12231;42.782;23.388;2023-02-05T05:16:00;95886.69;;;-3.58;100.00
19590;BME280;12231;42.782;23.388;2023-02-05T05:18:26;95888.34;;;-3.52;100.00
19590;BME280;12231;42.782;23.388;2023-02-05T05:20:52;95899.28;;;-3.49;100.00
19590;BME280;12231;42.782;23.388;2023-02-05T05:23:17;95895.06;;;-3.56;100.00
19590;BME280;12231;42.782;23.388;2023-02-05T05:25:45;95908.53;;;-3.63;100.00
19590;BME280;12231;42.782;23.388;2023-02-05T05:28:11;95905.97;;;-3.51;100.00
19590;BME280;12231;42.782;23.388;2023-02-05T05:30:38;95906.81;;;-3.46;100.00
19590;BME280;12231;42.782;23.388;2023-02-05T05:33:04;95911.84;;;-3.59;100.00
19590;BME280;12231;42.782;23.388;2023-02-05T05:35:29;95912.69;;;-3.53;100.00
19590;BME280;12231;42.782;23.388;2023-02-05T05:37:58;95910.16;;;-3.38;100.00
19590;BME280;12231;42.782;23.388;2023-02-05T05:40:24;95925.28;;;-3.72;100.00
19590;BME280;12231;42.782;23.388;2023-02-05T05:43:13;95921.09;;;-3.51;100.00
19590;BME280;12231;42.782;23.388;2023-02-05T05:45:57;95921.09;;;-3.37;100.00
19590;BME280;12231;42.782;23.388;2023-02-05T05:48:23;95937.06;;;-3.55;100.00
19590;BME280;12231;42.782;23.388;2023-02-05T05:50:49;95940.41;;;-3.56;100.00
19590;BME280;12231;42.782;23.388;2023-02-05T05:53:14;95934.50;;;-3.41;100.00
19590;BME280;12231;42.782;23.388;2023-02-05T05:55:40;95943.75;;;-3.42;100.00
19590;BME280;12231;42.782;23.388;2023-02-05T05:58:06;95940.41;;;-3.48;100.00
19590;BME280;12231;42.782;23.388;2023-02-05T06:00:32;95943.75;;;-3.42;100.00
19590;BME280;12231;42.782;23.388;2023-02-05T06:02:58;95942.06;;;-3.43;100.00
19590;BME280;12231;42.782;23.388;2023-02-05T06:05:23;95952.16;;;-3.64;100.00
19590;BME280;12231;42.782;23.388;2023-02-05T06:07:49;95939.56;;;-3.37;100.00
19590;BME280;12231;42.782;23.388;2023-02-05T06:10:14;95949.63;;;-3.44;100.00
19590;BME280;12231;42.782;23.388;2023-02-05T06:12:40;95950.47;;;-3.27;100.00
19590;BME280;12231;42.782;23.388;2023-02-05T06:15:06;95955.50;;;-3.36;100.00
19590;BME280;12231;42.782;23.388;2023-02-05T06:17:31;95961.38;;;-3.30;100.00
19590;BME280;12231;42.782;23.388;2023-02-05T06:19:57;95957.19;;;-3.41;100.00
19590;BME280;12231;42.782;23.388;2023-02-05T06:22:22;95960.28;;;-2.37;100.00
19590;BME280;12231;42.782;23.388;2023-02-05T06:24:48;95954.25;;;0.37;100.00
19590;BME280;12231;42.782;23.388;2023-02-05T06:27:13;95973.97;;;-1.35;100.00
19590;BME280;12231;42.782;23.388;2023-02-05T06:29:40;95985.94;;;-1.60;100.00
19590;BME280;12231;42.782;23.388;2023-02-05T06:32:05;95997.09;;;-1.97;100.00
19590;BME280;12231;42.782;23.388;2023-02-05T06:34:31;95993.19;;;-2.71;100.00
19590;BME280;12231;42.782;23.388;2023-02-05T06:36:56;96006.66;;;-2.75;100.00
19590;BME280;12231;42.782;23.388;2023-02-05T06:39:22;96012.50;;;-2.63;100.00
19590;BME280;12231;42.782;23.388;2023-02-05T06:41:47;96012.50;;;-2.55;100.00
19590;BME280;12231;42.782;23.388;2023-02-05T06:44:12;96018.38;;;-2.61;100.00
19590;BME280;12231;42.782;23.388;2023-02-05T06:46:38;96025.09;;;-2.49;100.00
19590;BME280;12231;42.782;23.388;2023-02-05T06:49:03;96030.94;;;-2.40;100.00
19590;BME280;12231;42.782;23.388;2023-02-05T06:51:29;96036.84;;;-2.39;100.00
19590;BME280;12231;42.782;23.388;2023-02-05T06:53:54;96035.13;;;-2.30;100.00
19590;BME280;12231;42.782;23.388;2023-02-05T06:56:22;96046.91;;;-2.47;100.00
19590;BME280;12231;42.782;23.388;2023-02-05T06:58:48;96042.66;;;-2.24;100.00
19590;BME280;12231;42.782;23.388;2023-02-05T07:01:13;96037.59;;;-2.16;100.00
19590;BME280;12231;42.782;23.388;2023-02-05T07:03:38;96038.38;;;-2.02;100.00
19590;BME280;12231;42.782;23.388;2023-02-05T07:06:04;96049.28;;;-1.94;100.00
19590;BME280;12231;42.782;23.388;2023-02-05T07:08:30;96053.34;;;-1.72;100.00
19590;BME280;12231;42.782;23.388;2023-02-05T07:10:55;96065.88;;;-1.54;100.00
19590;BME280;12231;42.782;23.388;2023-02-05T07:13:21;96065.00;;;-1.46;100.00
19590;BME280;12231;42.782;23.388;2023-02-05T07:15:46;96063.16;;;-1.21;100.00
19590;BME280;12231;42.782;23.388;2023-02-05T07:18:11;96083.22;;;-0.98;100.00
19590;BME280;12231;42.782;23.388;2023-02-05T07:20:37;96073.03;;;-0.91;100.00
19590;BME280;12231;42.782;23.388;2023-02-05T07:23:03;96078.88;;;-0.84;100.00
19590;BME280;12231;42.782;23.388;2023-02-05T07:25:29;96078.69;;;-0.65;100.00
19590;BME280;12231;42.782;23.388;2023-02-05T07:28:01;96082.25;;;-0.84;100.00
19590;BME280;12231;42.782;23.388;2023-02-05T07:30:26;96099.50;;;-1.40;100.00
19590;BME280;12231;42.782;23.388;2023-02-05T07:32:52;96099.25;;;-1.01;100.00
19590;BME280;12231;42.782;23.388;2023-02-05T07:35:17;96101.56;;;-0.74;100.00
19590;BME280;12231;42.782;23.388;2023-02-05T07:37:43;96098.19;;;-0.74;100.00
19590;BME280;12231;42.782;23.388;2023-02-05T07:40:08;96100.50;;;-0.50;100.00
19590;BME280;12231;42.782;23.388;2023-02-05T07:42:34;96094.66;;;-0.54;99.93
19590;BME280;12231;42.782;23.388;2023-02-05T07:44:59;96110.63;;;-0.52;98.05
19590;BME280;12231;42.782;23.388;2023-02-05T07:47:25;96106.47;;;-0.56;97.96
19590;BME280;12231;42.782;23.388;2023-02-05T07:49:50;96115.66;;;-0.44;97.47
19590;BME280;12231;42.782;23.388;2023-02-05T07:52:15;96118.22;;;-0.47;95.87
19590;BME280;12231;42.782;23.388;2023-02-05T07:54:41;96113.91;;;-0.38;95.74
19590;BME280;12231;42.782;23.388;2023-02-05T07:57:06;96119.09;;;-0.53;95.56
19590;BME280;12231;42.782;23.388;2023-02-05T07:59:32;96126.59;;;-0.44;96.32
19590;BME280;12231;42.782;23.388;2023-02-05T08:01:57;96117.19;;;-0.28;95.36
19590;BME280;12231;42.782;23.388;2023-02-05T08:04:23;96128.16;;;-0.29;93.92
19590;BME280;12231;42.782;23.388;2023-02-05T08:06:48;96137.50;;;-0.37;92.86
19590;BME280;12231;42.782;23.388;2023-02-05T08:09:13;96139.13;;;-0.30;92.47
19590;BME280;12231;42.782;23.388;2023-02-05T08:11:41;96140.63;;;-0.10;91.92
19590;BME280;12231;42.782;23.388;2023-02-05T08:14:07;96138.97;;;-0.14;91.25
19590;BME280;12231;42.782;23.388;2023-02-05T08:16:33;96141.44;;;-0.08;91.53
19590;BME280;12231;42.782;23.388;2023-02-05T08:18:58;96147.44;;;-0.13;91.65
19590;BME280;12231;42.782;23.388;2023-02-05T08:21:23;96142.16;;;0.03;91.17
19590;BME280;12231;42.782;23.388;2023-02-05T08:23:49;96151.94;;;0.37;90.69
19590;BME280;12231;42.782;23.388;2023-02-05T08:26:16;96144.72;;;0.72;91.92
19590;BME280;12231;42.782;23.388;2023-02-05T08:28:41;96157.13;;;0.26;87.31
19590;BME280;12231;42.782;23.388;2023-02-05T08:31:13;96157.63;;;0.57;90.64
19590;BME280;12231;42.782;23.388;2023-02-05T08:33:39;96159.75;;;0.87;87.52
19590;BME280;12231;42.782;23.388;2023-02-05T08:36:05;96163.25;;;0.78;86.58
19590;BME280;12231;42.782;23.388;2023-02-05T08:38:31;96161.94;;;1.12;86.10
19590;BME280;12231;42.782;23.388;2023-02-05T08:40:56;96156.59;;;1.30;85.24
19590;BME280;12231;42.782;23.388;2023-02-05T08:43:22;96158.09;;;1.43;85.00
19590;BME280;12231;42.782;23.388;2023-02-05T08:45:48;96158.03;;;0.90;84.16
19590;BME280;12231;42.782;23.388;2023-02-05T08:48:13;96169.63;;;0.41;84.74
19590;BME280;12231;42.782;23.388;2023-02-05T08:50:38;96165.25;;;0.57;84.99
19590;BME280;12231;42.782;23.388;2023-02-05T08:53:04;96166.91;;;0.58;84.69
19590;BME280;12231;42.782;23.388;2023-02-05T08:55:31;96166.06;;;0.56;85.68
19590;BME280;12231;42.782;23.388;2023-02-05T08:57:56;96168.66;;;0.51;86.31
19590;BME280;12231;42.782;23.388;2023-02-05T09:00:22;96175.56;;;0.40;85.49
19590;BME280;12231;42.782;23.388;2023-02-05T09:02:47;96180.94;;;0.15;88.10
19590;BME280;12231;42.782;23.388;2023-02-05T09:05:13;96174.16;;;0.14;88.45
19590;BME280;12231;42.782;23.388;2023-02-05T09:07:39;96188.31;;;0.31;85.93
19590;BME280;12231;42.782;23.388;2023-02-05T09:10:07;96208.25;;;-0.19;85.15
19590;BME280;12231;42.782;23.388;2023-02-05T09:12:33;96202.81;;;-0.78;86.11
19590;BME280;12231;42.782;23.388;2023-02-05T09:14:58;96199.50;;;-0.92;89.32
19590;BME280;12231;42.782;23.388;2023-02-05T09:17:24;96199.47;;;-0.89;90.94
19590;BME280;12231;42.782;23.388;2023-02-05T09:19:49;96198.41;;;-0.54;91.57
19590;BME280;12231;42.782;23.388;2023-02-05T09:22:15;96209.84;;;-0.11;91.22
19590;BME280;12231;42.782;23.388;2023-02-05T09:24:42;96203.66;;;0.21;89.94
19590;BME280;12231;42.782;23.388;2023-02-05T09:27:08;96204.47;;;0.24;88.46
19590;BME280;12231;42.782;23.388;2023-02-05T09:29:33;96210.03;;;0.56;87.69
19590;BME280;12231;42.782;23.388;2023-02-05T09:31:58;96210.78;;;0.64;86.48
19590;BME280;12231;42.782;23.388;2023-02-05T09:34:24;96206.59;;;0.59;86.17
19590;BME280;12231;42.782;23.388;2023-02-05T09:36:50;96212.19;;;0.85;85.97
19590;BME280;12231;42.782;23.388;2023-02-05T09:39:15;96213.78;;;0.93;84.40
19590;BME280;12231;42.782;23.388;2023-02-05T09:41:52;96209.44;;;1.03;83.71
19590;BME280;12231;42.782;23.388;2023-02-05T09:47:18;96211.91;;;1.09;82.28
19590;BME280;12231;42.782;23.388;2023-02-05T09:50:11;96212.63;;;1.18;83.71
19590;BME280;12231;42.782;23.388;2023-02-05T09:52:41;96217.59;;;1.24;82.15
19590;BME280;12231;42.782;23.388;2023-02-05T09:55:29;96215.50;;;1.52;84.03
19590;BME280;12231;42.782;23.388;2023-02-05T09:57:59;96205.06;;;1.12;82.37
19590;BME280;12231;42.782;23.388;2023-02-05T10:03:18;96211.31;;;1.51;81.77
19590;BME280;12231;42.782;23.388;2023-02-05T10:08:36;96217.91;;;1.63;78.96
19590;BME280;12231;42.782;23.388;2023-02-05T10:11:12;96214.69;;;2.02;78.44
19590;BME280;12231;42.782;23.388;2023-02-05T10:13:42;96214.16;;;1.85;77.16
19590;BME280;12231;42.782;23.388;2023-02-05T10:31:10;96207.19;;;2.43;71.00
19590;BME280;12231;42.782;23.388;2023-02-05T10:33:51;96208.19;;;2.34;71.40
19590;BME280;12231;42.782;23.388;2023-02-05T10:36:25;96195.81;;;2.60;72.31
19590;BME280;12231;42.782;23.388;2023-02-05T10:38:55;96198.19;;;2.25;72.21
19590;BME280;12231;42.782;23.388;2023-02-05T10:41:28;96203.72;;;2.01;71.86
19590;BME280;12231;42.782;23.388;2023-02-05T10:46:40;96187.66;;;1.99;71.08
19590;BME280;12231;42.782;23.388;2023-02-05T10:49:53;96184.91;;;2.11;72.49
19590;BME280;12231;42.782;23.388;2023-02-05T10:52:21;96185.38;;;2.31;70.80
19590;BME280;12231;42.782;23.388;2023-02-05T10:54:46;96182.44;;;2.07;70.28
19590;BME280;12231;42.782;23.388;2023-02-05T10:57:17;96211.53;;;1.36;68.16
19590;BME280;12231;42.782;23.388;2023-02-05T10:59:55;96200.03;;;1.11;72.48
19590;BME280;12231;42.782;23.388;2023-02-05T11:02:32;96192.94;;;1.34;73.76
19590;BME280;12231;42.782;23.388;2023-02-05T11:05:02;96198.13;;;1.26;71.24
19590;BME280;12231;42.782;23.388;2023-02-05T11:07:42;96189.66;;;1.26;75.88
19590;BME280;12231;42.782;23.388;2023-02-05T11:10:28;96196.56;;;1.73;74.76
19590;BME280;12231;42.782;23.388;2023-02-05T11:13:04;96194.09;;;2.18;74.85
19590;BME280;12231;42.782;23.388;2023-02-05T11:15:56;96189.50;;;2.38;75.95
19590;BME280;12231;42.782;23.388;2023-02-05T11:18:25;96185.03;;;2.92;75.58
19590;BME280;12231;42.782;23.388;2023-02-05T11:20:57;96191.47;;;3.08;73.71
19590;BME280;12231;42.782;23.388;2023-02-05T11:23:24;96168.06;;;4.94;100.00
19590;BME280;12231;42.782;23.388;2023-02-05T11:25:56;96158.28;;;8.59;100.00
19590;BME280;12231;42.782;23.388;2023-02-05T11:28:33;96163.94;;;7.64;62.67
19590;BME280;12231;42.782;23.388;2023-02-05T11:31:25;96169.63;;;7.27;63.93
19590;BME280;12231;42.782;23.388;2023-02-05T11:34:14;96174.28;;;5.96;64.05
19590;BME280;12231;42.782;23.388;2023-02-05T11:36:48;96177.88;;;5.91;65.50
19590;BME280;12231;42.782;23.388;2023-02-05T11:39:37;96185.63;;;5.05;66.08
19590;BME280;12231;42.782;23.388;2023-02-05T11:42:16;96177.44;;;3.99;70.60
19590;BME280;12231;42.782;23.388;2023-02-05T11:44:55;96185.53;;;3.46;71.83
19590;BME280;12231;42.782;23.388;2023-02-05T11:47:34;96186.34;;;3.10;73.90
19590;BME280;12231;42.782;23.388;2023-02-05T11:50:02;96182.88;;;3.14;70.54
19590;BME280;12231;42.782;23.388;2023-02-05T11:52:33;96181.47;;;2.58;73.77
19590;BME280;12231;42.782;23.388;2023-02-05T11:55:02;96191.06;;;2.45;76.15
19590;BME280;12231;42.782;23.388;2023-02-05T11:57:36;96186.88;;;2.41;77.15
19590;BME280;12231;42.782;23.388;2023-02-05T12:02:35;96193.53;;;2.48;78.52
19590;BME280;12231;42.782;23.388;2023-02-05T12:05:20;96185.53;;;2.24;78.80
19590;BME280;12231;42.782;23.388;2023-02-05T12:07:54;96183.63;;;2.35;78.72
19590;BME280;12231;42.782;23.388;2023-02-05T12:10:47;96184.22;;;2.47;78.27
19590;BME280;12231;42.782;23.388;2023-02-05T12:15:58;96183.25;;;2.54;78.01
19590;BME280;12231;42.782;23.388;2023-02-05T12:27:14;96187.03;;;2.78;72.55
19590;BME280;12231;42.782;23.388;2023-02-05T12:38:00;96197.28;;;2.31;73.94
19590;BME280;12231;42.782;23.388;2023-02-05T12:40:47;96191.28;;;2.33;72.19
19590;BME280;12231;42.782;23.388;2023-02-05T12:43:46;96190.75;;;2.15;73.71
19590;BME280;12231;42.782;23.388;2023-02-05T12:46:42;96199.59;;;1.94;74.74
19590;BME280;12231;42.782;23.388;2023-02-05T12:52:21;96198.00;;;1.87;73.91
19590;BME280;12231;42.782;23.388;2023-02-05T12:58:06;96192.81;;;1.95;75.09
19590;BME280;12231;42.782;23.388;2023-02-05T13:00:43;96183.28;;;2.07;71.98
19590;BME280;12231;42.782;23.388;2023-02-05T13:08:37;96183.38;;;2.01;70.60
19590;BME280;12231;42.782;23.388;2023-02-05T13:11:15;96184.19;;;2.02;68.71
19590;BME280;12231;42.782;23.388;2023-02-05T13:13:57;96181.66;;;2.03;69.67
19590;BME280;12231;42.782;23.388;2023-02-05T13:16:34;96194.59;;;1.90;67.78
19590;BME280;12231;42.782;23.388;2023-02-05T13:19:15;96183.56;;;1.91;68.91
19590;BME280;12231;42.782;23.388;2023-02-05T13:21:46;96191.78;;;2.06;69.48
19590;BME280;12231;42.782;23.388;2023-02-05T13:24:35;96197.88;;;1.96;69.27
19590;BME280;12231;42.782;23.388;2023-02-05T13:27:35;96189.69;;;1.78;69.34
19590;BME280;12231;42.782;23.388;2023-02-05T13:30:23;96196.00;;;1.56;69.56
19590;BME280;12231;42.782;23.388;2023-02-05T13:32:52;96192.56;;;1.58;70.14
19590;BME280;12231;42.782;23.388;2023-02-05T13:35:20;96195.16;;;1.54;70.12
19590;BME280;12231;42.782;23.388;2023-02-05T13:38:12;96193.31;;;2.13;78.39
19590;BME280;12231;42.782;23.388;2023-02-05T13:44:03;96194.59;;;1.90;68.46
19590;BME280;12231;42.782;23.388;2023-02-05T13:55:38;96202.91;;;1.46;72.13
19590;BME280;12231;42.782;23.388;2023-02-05T13:58:22;96208.69;;;1.56;71.63
19590;BME280;12231;42.782;23.388;2023-02-05T14:01:12;96211.66;;;1.25;72.84
19590;BME280;12231;42.782;23.388;2023-02-05T14:03:52;96214.28;;;1.21;72.36
19590;BME280;12231;42.782;23.388;2023-02-05T14:06:27;96213.69;;;1.01;73.23
19590;BME280;12231;42.782;23.388;2023-02-05T14:08:58;96218.00;;;0.94;73.25
19590;BME280;12231;42.782;23.388;2023-02-05T14:11:25;96212.00;;;1.01;72.80
19590;BME280;12231;42.782;23.388;2023-02-05T14:14:18;96214.25;;;0.54;72.81
19590;BME280;12231;42.782;23.388;2023-02-05T14:16:44;96210.09;;;0.50;73.94
19590;BME280;12231;42.782;23.388;2023-02-05T14:19:18;96211.66;;;0.63;74.31
19590;BME280;12231;42.782;23.388;2023-02-05T14:24:38;96211.00;;;0.43;74.30
19590;BME280;12231;42.782;23.388;2023-02-05T14:29:55;96212.75;;;0.40;74.93
19590;BME280;12231;42.782;23.388;2023-02-05T14:35:27;96221.16;;;0.42;74.14
19590;BME280;12231;42.782;23.388;2023-02-05T14:37:57;96218.78;;;0.28;74.94
19590;BME280;12231;42.782;23.388;2023-02-05T14:40:32;96218.94;;;0.10;75.10
19590;BME280;12231;42.782;23.388;2023-02-05T14:43:13;96220.56;;;0.19;74.70
19590;BME280;12231;42.782;23.388;2023-02-05T14:45:48;96218.97;;;0.09;75.70
19590;BME280;12231;42.782;23.388;2023-02-05T14:48:38;96217.34;;;0.05;75.33
19590;BME280;12231;42.782;23.388;2023-02-05T14:54:11;96216.75;;;-0.28;76.60
19590;BME280;12231;42.782;23.388;2023-02-05T14:56:48;96224.50;;;-0.44;77.99
19590;BME280;12231;42.782;23.388;2023-02-05T14:59:21;96230.50;;;-0.59;77.71